AUA62W LDSP-LOWW
Flight info
| Callsign | AUA62W |
|---|---|
| Flight time | 0h 53m |
| Altitude | 34000 |
| Route | SIRMI DCT RUDIK DCT OBUTI OBUTI2W |
| Aircraft | A321/M-SDE3FGHIRWY/LB1 |
Departure
| Time | 2026-05-04 14:10 |
|---|---|
| Airport | Split Saint Jerome Airport (LDSP) |
Arrival
| Time | 2026-05-04 15:04 |
|---|---|
| Airport | Vienna International Airport (LOWW) |
| Time | Latitude | Longitude | Altitude | Speed | Heading |
|---|---|---|---|---|---|
| 2026-05-04 13:31 | 43.53621 | 16.29667 | 82 ft | 0 kts | 94° |
| 2026-05-04 14:02 | 43.53629 | 16.29670 | 82 ft | 2 kts | 5° |
| 2026-05-04 14:02 | 43.53644 | 16.29651 | 85 ft | 5 kts | 334° |
| 2026-05-04 14:03 | 43.53695 | 16.29679 | 87 ft | 12 kts | 47° |
| 2026-05-04 14:03 | 43.53747 | 16.29773 | 84 ft | 13 kts | 53° |
| 2026-05-04 14:03 | 43.53802 | 16.29872 | 71 ft | 13 kts | 52° |
| 2026-05-04 14:03 | 43.53858 | 16.29974 | 73 ft | 13 kts | 53° |
| 2026-05-04 14:04 | 43.53911 | 16.30056 | 69 ft | 0 kts | 32° |
| 2026-05-04 14:06 | 43.53913 | 16.30057 | 69 ft | 3 kts | 30° |
| 2026-05-04 14:07 | 43.53967 | 16.30080 | 73 ft | 13 kts | 17° |
| 2026-05-04 14:07 | 43.54060 | 16.30136 | 67 ft | 15 kts | 32° |
| 2026-05-04 14:07 | 43.54144 | 16.30245 | 66 ft | 20 kts | 52° |
| 2026-05-04 14:07 | 43.54231 | 16.30400 | 60 ft | 21 kts | 52° |
| 2026-05-04 14:08 | 43.54321 | 16.30562 | 57 ft | 22 kts | 52° |
| 2026-05-04 14:08 | 43.54414 | 16.30729 | 54 ft | 22 kts | 52° |
| 2026-05-04 14:08 | 43.54503 | 16.30891 | 53 ft | 21 kts | 53° |
| 2026-05-04 14:08 | 43.54552 | 16.31021 | 62 ft | 11 kts | 89° |
| 2026-05-04 14:09 | 43.54566 | 16.31004 | 53 ft | 8 kts | 234° |
| 2026-05-04 14:09 | 43.54557 | 16.30987 | 57 ft | 2 kts | 232° |
| 2026-05-04 14:10 | 43.54139 | 16.30235 | 67 ft | 110 kts | 232° |
| 2026-05-04 14:10 | 43.53572 | 16.29220 | 113 ft | 153 kts | 232° |
| 2026-05-04 14:10 | 43.52914 | 16.28080 | 779 ft | 148 kts | 231° |
| 2026-05-04 14:10 | 43.52253 | 16.26998 | 1444 ft | 150 kts | 229° |
| 2026-05-04 14:11 | 43.51537 | 16.25827 | 1766 ft | 171 kts | 231° |
| 2026-05-04 14:11 | 43.49826 | 16.22988 | 2268 ft | 216 kts | 230° |
| 2026-05-04 14:11 | 43.48811 | 16.21296 | 2618 ft | 241 kts | 230° |
| 2026-05-04 14:12 | 43.47714 | 16.19467 | 3158 ft | 256 kts | 230° |
| 2026-05-04 14:12 | 43.46692 | 16.17396 | 3903 ft | 262 kts | 248° |
| 2026-05-04 14:12 | 43.46890 | 16.12466 | 5421 ft | 270 kts | 299° |
| 2026-05-04 14:13 | 43.48105 | 16.10509 | 6200 ft | 273 kts | 324° |
| 2026-05-04 14:13 | 43.49817 | 16.09453 | 6951 ft | 276 kts | 350° |
| 2026-05-04 14:13 | 43.51759 | 16.09519 | 7664 ft | 280 kts | 13° |
| 2026-05-04 14:13 | 43.53671 | 16.10140 | 8401 ft | 284 kts | 14° |
| 2026-05-04 14:14 | 43.55605 | 16.10782 | 9144 ft | 288 kts | 14° |
| 2026-05-04 14:14 | 43.59591 | 16.12104 | 10316 ft | 309 kts | 14° |
| 2026-05-04 14:14 | 43.61756 | 16.12819 | 10473 ft | 332 kts | 14° |
| 2026-05-04 14:15 | 43.66408 | 16.14341 | 11474 ft | 349 kts | 14° |
| 2026-05-04 14:15 | 43.71185 | 16.15896 | 12812 ft | 356 kts | 14° |
| 2026-05-04 14:16 | 43.76030 | 16.17475 | 14098 ft | 363 kts | 14° |
| 2026-05-04 14:16 | 43.78502 | 16.18285 | 14692 ft | 366 kts | 14° |
| 2026-05-04 14:17 | 43.83489 | 16.19932 | 15883 ft | 371 kts | 14° |
| 2026-05-04 14:17 | 43.86022 | 16.20772 | 16452 ft | 374 kts | 13° |
| 2026-05-04 14:17 | 43.91122 | 16.22442 | 17585 ft | 379 kts | 13° |
| 2026-05-04 14:18 | 43.93696 | 16.23284 | 18137 ft | 382 kts | 13° |
| 2026-05-04 14:18 | 43.98907 | 16.25000 | 19122 ft | 386 kts | 13° |
| 2026-05-04 14:19 | 44.04156 | 16.26734 | 20056 ft | 390 kts | 12° |
| 2026-05-04 14:19 | 44.06795 | 16.27609 | 20519 ft | 391 kts | 12° |
| 2026-05-04 14:19 | 44.09444 | 16.28489 | 20940 ft | 393 kts | 12° |
| 2026-05-04 14:19 | 44.12112 | 16.29378 | 21362 ft | 395 kts | 12° |
| 2026-05-04 14:20 | 44.14805 | 16.30158 | 21784 ft | 395 kts | 5° |
| 2026-05-04 14:20 | 44.17554 | 16.30355 | 22209 ft | 395 kts | 358° |
| 2026-05-04 14:20 | 44.20308 | 16.30346 | 22647 ft | 397 kts | 358° |
| 2026-05-04 14:21 | 44.25864 | 16.30343 | 23480 ft | 401 kts | 358° |
| 2026-05-04 14:21 | 44.28657 | 16.30349 | 23857 ft | 403 kts | 358° |
| 2026-05-04 14:21 | 44.31468 | 16.30357 | 24187 ft | 405 kts | 358° |
| 2026-05-04 14:21 | 44.34295 | 16.30366 | 24535 ft | 407 kts | 359° |
| 2026-05-04 14:22 | 44.37135 | 16.30378 | 24877 ft | 409 kts | 358° |
| 2026-05-04 14:22 | 44.39980 | 16.30387 | 25221 ft | 410 kts | 358° |
| 2026-05-04 14:22 | 44.42841 | 16.30392 | 25561 ft | 412 kts | 358° |
| 2026-05-04 14:22 | 44.45725 | 16.30393 | 25900 ft | 415 kts | 358° |
| 2026-05-04 14:23 | 44.51520 | 16.30398 | 26566 ft | 418 kts | 359° |
| 2026-05-04 14:23 | 44.54445 | 16.30401 | 26896 ft | 420 kts | 359° |
| 2026-05-04 14:23 | 44.57384 | 16.30405 | 27217 ft | 422 kts | 359° |
| 2026-05-04 14:24 | 44.60332 | 16.30406 | 27546 ft | 424 kts | 359° |
| 2026-05-04 14:24 | 44.63252 | 16.30408 | 27864 ft | 426 kts | 359° |
| 2026-05-04 14:24 | 44.66216 | 16.30415 | 28187 ft | 428 kts | 359° |
| 2026-05-04 14:24 | 44.69205 | 16.30421 | 28490 ft | 430 kts | 359° |
| 2026-05-04 14:25 | 44.72245 | 16.30425 | 28825 ft | 431 kts | 359° |
| 2026-05-04 14:25 | 44.78237 | 16.30436 | 29448 ft | 435 kts | 359° |
| 2026-05-04 14:25 | 44.81272 | 16.30440 | 29733 ft | 437 kts | 359° |
| 2026-05-04 14:26 | 44.84314 | 16.30446 | 30015 ft | 438 kts | 359° |
| 2026-05-04 14:26 | 44.87370 | 16.30454 | 30246 ft | 440 kts | 359° |
| 2026-05-04 14:26 | 44.90438 | 16.30460 | 30474 ft | 441 kts | 359° |
| 2026-05-04 14:26 | 44.93519 | 16.30462 | 30697 ft | 442 kts | 359° |
| 2026-05-04 14:27 | 44.96603 | 16.30466 | 30903 ft | 444 kts | 359° |
| 2026-05-04 14:27 | 44.99700 | 16.30475 | 31151 ft | 444 kts | 359° |
| 2026-05-04 14:27 | 45.02779 | 16.30462 | 31451 ft | 443 kts | 358° |
| 2026-05-04 14:27 | 45.05863 | 16.30409 | 31749 ft | 442 kts | 358° |
| 2026-05-04 14:28 | 45.08922 | 16.30331 | 32046 ft | 441 kts | 357° |
| 2026-05-04 14:28 | 45.11993 | 16.30241 | 32344 ft | 440 kts | 357° |
| 2026-05-04 14:28 | 45.15052 | 16.30151 | 32656 ft | 439 kts | 357° |
| 2026-05-04 14:28 | 45.18105 | 16.30070 | 32951 ft | 438 kts | 357° |
| 2026-05-04 14:29 | 45.24189 | 16.29933 | 33565 ft | 436 kts | 357° |
| 2026-05-04 14:29 | 45.30250 | 16.29800 | 34007 ft | 433 kts | 357° |
| 2026-05-04 14:30 | 45.36184 | 16.29665 | 34033 ft | 424 kts | 357° |
| 2026-05-04 14:31 | 45.45009 | 16.29464 | 34047 ft | 423 kts | 357° |
| 2026-05-04 14:32 | 45.56783 | 16.29211 | 34036 ft | 423 kts | 357° |
| 2026-05-04 14:32 | 45.62668 | 16.29087 | 34042 ft | 423 kts | 357° |
| 2026-05-04 14:33 | 45.68575 | 16.28958 | 34041 ft | 424 kts | 357° |
| 2026-05-04 14:33 | 45.74473 | 16.28820 | 34040 ft | 424 kts | 357° |
| 2026-05-04 14:34 | 45.80378 | 16.28680 | 34047 ft | 424 kts | 357° |
| 2026-05-04 14:34 | 45.86276 | 16.28564 | 34035 ft | 424 kts | 357° |
| 2026-05-04 14:35 | 45.92176 | 16.28462 | 34051 ft | 424 kts | 357° |
| 2026-05-04 14:35 | 45.98048 | 16.28334 | 34047 ft | 424 kts | 357° |
| 2026-05-04 14:36 | 46.03985 | 16.28170 | 34054 ft | 424 kts | 357° |
| 2026-05-04 14:36 | 46.09857 | 16.28020 | 34051 ft | 424 kts | 357° |
| 2026-05-04 14:37 | 46.15758 | 16.27884 | 34046 ft | 424 kts | 357° |
| 2026-05-04 14:37 | 46.21666 | 16.27748 | 34038 ft | 425 kts | 357° |
| 2026-05-04 14:38 | 46.27575 | 16.27615 | 34049 ft | 425 kts | 357° |
| 2026-05-04 14:38 | 46.33486 | 16.27474 | 34037 ft | 425 kts | 357° |
| 2026-05-04 14:39 | 46.39369 | 16.27018 | 34038 ft | 422 kts | 349° |
| 2026-05-04 14:39 | 46.44239 | 16.25861 | 33891 ft | 423 kts | 349° |
| 2026-05-04 14:40 | 46.50003 | 16.24504 | 33330 ft | 422 kts | 349° |
| 2026-05-04 14:40 | 46.52889 | 16.23824 | 32835 ft | 418 kts | 349° |
| 2026-05-04 14:40 | 46.55747 | 16.23147 | 32305 ft | 414 kts | 349° |
| 2026-05-04 14:40 | 46.58576 | 16.22475 | 31781 ft | 410 kts | 349° |
| 2026-05-04 14:41 | 46.61376 | 16.21807 | 31269 ft | 406 kts | 349° |
| 2026-05-04 14:41 | 46.64151 | 16.21147 | 30754 ft | 402 kts | 349° |
| 2026-05-04 14:41 | 46.69667 | 16.19837 | 29712 ft | 395 kts | 349° |
| 2026-05-04 14:42 | 46.75018 | 16.18564 | 28744 ft | 384 kts | 349° |
| 2026-05-04 14:42 | 46.77603 | 16.17950 | 28281 ft | 378 kts | 349° |
| 2026-05-04 14:42 | 46.80179 | 16.17337 | 27814 ft | 372 kts | 349° |
| 2026-05-04 14:43 | 46.82723 | 16.16723 | 27367 ft | 369 kts | 349° |
| 2026-05-04 14:43 | 46.85243 | 16.16110 | 26919 ft | 366 kts | 349° |
| 2026-05-04 14:43 | 46.87756 | 16.15504 | 26499 ft | 364 kts | 349° |
| 2026-05-04 14:43 | 46.90245 | 16.14908 | 26064 ft | 363 kts | 349° |
| 2026-05-04 14:44 | 46.92734 | 16.14309 | 25648 ft | 361 kts | 349° |
| 2026-05-04 14:44 | 46.95202 | 16.13714 | 25274 ft | 359 kts | 348° |
| 2026-05-04 14:44 | 46.97661 | 16.13119 | 24885 ft | 357 kts | 348° |
| 2026-05-04 14:44 | 47.00110 | 16.12529 | 24477 ft | 355 kts | 348° |
| 2026-05-04 14:45 | 47.02545 | 16.11942 | 24073 ft | 354 kts | 348° |
| 2026-05-04 14:45 | 47.04965 | 16.11358 | 23665 ft | 352 kts | 348° |
| 2026-05-04 14:45 | 47.07385 | 16.10770 | 23201 ft | 351 kts | 348° |
| 2026-05-04 14:45 | 47.09790 | 16.10183 | 22785 ft | 350 kts | 348° |
| 2026-05-04 14:46 | 47.12185 | 16.09597 | 22372 ft | 349 kts | 348° |
| 2026-05-04 14:46 | 47.14582 | 16.09014 | 21963 ft | 348 kts | 348° |
| 2026-05-04 14:46 | 47.16968 | 16.08436 | 21542 ft | 347 kts | 348° |
| 2026-05-04 14:46 | 47.19339 | 16.07861 | 21124 ft | 346 kts | 348° |
| 2026-05-04 14:47 | 47.21713 | 16.07288 | 20704 ft | 345 kts | 348° |
| 2026-05-04 14:47 | 47.24082 | 16.06717 | 20280 ft | 344 kts | 348° |
| 2026-05-04 14:47 | 47.26438 | 16.06149 | 19862 ft | 343 kts | 348° |
| 2026-05-04 14:47 | 47.28793 | 16.05578 | 19446 ft | 342 kts | 348° |
| 2026-05-04 14:48 | 47.31138 | 16.05006 | 19027 ft | 341 kts | 348° |
| 2026-05-04 14:48 | 47.33462 | 16.04438 | 18615 ft | 340 kts | 348° |
| 2026-05-04 14:48 | 47.35801 | 16.03883 | 18190 ft | 339 kts | 351° |
| 2026-05-04 14:48 | 47.38167 | 16.03758 | 17776 ft | 343 kts | 1° |
| 2026-05-04 14:49 | 47.40619 | 16.04077 | 17420 ft | 360 kts | 3° |
| 2026-05-04 14:49 | 47.43129 | 16.04417 | 17043 ft | 362 kts | 4° |
| 2026-05-04 14:49 | 47.45602 | 16.04752 | 16667 ft | 361 kts | 3° |
| 2026-05-04 14:49 | 47.48102 | 16.05086 | 16293 ft | 360 kts | 3° |
| 2026-05-04 14:50 | 47.50589 | 16.05418 | 15920 ft | 358 kts | 3° |
| 2026-05-04 14:50 | 47.53105 | 16.05754 | 15537 ft | 357 kts | 3° |
| 2026-05-04 14:50 | 47.55537 | 16.06080 | 15175 ft | 355 kts | 4° |
| 2026-05-04 14:50 | 47.57990 | 16.06410 | 14806 ft | 353 kts | 4° |
| 2026-05-04 14:51 | 47.60430 | 16.06740 | 14434 ft | 352 kts | 3° |
| 2026-05-04 14:51 | 47.62867 | 16.07070 | 14061 ft | 350 kts | 4° |
| 2026-05-04 14:51 | 47.65285 | 16.07398 | 13693 ft | 348 kts | 4° |
| 2026-05-04 14:51 | 47.67697 | 16.07724 | 13313 ft | 347 kts | 4° |
| 2026-05-04 14:52 | 47.70092 | 16.08047 | 12952 ft | 345 kts | 4° |
| 2026-05-04 14:52 | 47.72480 | 16.08372 | 12590 ft | 343 kts | 4° |
| 2026-05-04 14:52 | 47.74843 | 16.08693 | 12237 ft | 341 kts | 4° |
| 2026-05-04 14:52 | 47.77210 | 16.09013 | 11875 ft | 339 kts | 3° |
| 2026-05-04 14:53 | 47.79550 | 16.09329 | 11530 ft | 337 kts | 3° |
| 2026-05-04 14:53 | 47.81886 | 16.09645 | 11173 ft | 335 kts | 3° |
| 2026-05-04 14:53 | 47.84202 | 16.09962 | 10823 ft | 333 kts | 3° |
| 2026-05-04 14:53 | 47.86496 | 16.10277 | 10470 ft | 331 kts | 3° |
| 2026-05-04 14:54 | 47.88782 | 16.10592 | 10166 ft | 326 kts | 3° |
| 2026-05-04 14:54 | 47.90998 | 16.10894 | 10038 ft | 313 kts | 3° |
| 2026-05-04 14:54 | 47.93135 | 16.11185 | 9840 ft | 303 kts | 2° |
| 2026-05-04 14:54 | 47.95242 | 16.11466 | 9558 ft | 304 kts | 3° |
| 2026-05-04 14:55 | 47.97338 | 16.11752 | 9178 ft | 301 kts | 3° |
| 2026-05-04 14:55 | 47.99429 | 16.12037 | 8789 ft | 300 kts | 4° |
| 2026-05-04 14:55 | 48.01498 | 16.12319 | 8413 ft | 298 kts | 4° |
| 2026-05-04 14:55 | 48.03559 | 16.12597 | 8034 ft | 297 kts | 4° |
| 2026-05-04 14:56 | 48.05615 | 16.12881 | 7659 ft | 295 kts | 4° |
| 2026-05-04 14:56 | 48.07655 | 16.13167 | 7286 ft | 294 kts | 4° |
| 2026-05-04 14:56 | 48.09700 | 16.13453 | 6909 ft | 294 kts | 4° |
| 2026-05-04 14:56 | 48.11739 | 16.13738 | 6531 ft | 293 kts | 5° |
| 2026-05-04 14:57 | 48.13756 | 16.14020 | 6160 ft | 287 kts | 5° |
| 2026-05-04 14:57 | 48.15641 | 16.14392 | 6074 ft | 262 kts | 15° |
| 2026-05-04 14:57 | 48.17297 | 16.15256 | 5964 ft | 246 kts | 25° |
| 2026-05-04 14:57 | 48.18869 | 16.16244 | 5856 ft | 241 kts | 24° |
| 2026-05-04 14:58 | 48.20391 | 16.17190 | 5756 ft | 235 kts | 23° |
| 2026-05-04 14:58 | 48.21738 | 16.18466 | 5616 ft | 225 kts | 52° |
| 2026-05-04 14:58 | 48.22390 | 16.20518 | 5304 ft | 215 kts | 88° |
| 2026-05-04 14:58 | 48.22194 | 16.22643 | 5076 ft | 203 kts | 117° |
| 2026-05-04 14:59 | 48.21587 | 16.24538 | 4828 ft | 201 kts | 120° |
| 2026-05-04 14:59 | 48.20978 | 16.26424 | 4550 ft | 201 kts | 120° |
| 2026-05-04 14:59 | 48.19753 | 16.30227 | 4002 ft | 203 kts | 119° |
| 2026-05-04 15:00 | 48.19137 | 16.32140 | 3729 ft | 205 kts | 119° |
| 2026-05-04 15:00 | 48.18519 | 16.34058 | 3452 ft | 204 kts | 120° |
| 2026-05-04 15:00 | 48.17906 | 16.35958 | 3179 ft | 200 kts | 119° |
| 2026-05-04 15:01 | 48.16728 | 16.39608 | 2669 ft | 189 kts | 119° |
| 2026-05-04 15:01 | 48.16176 | 16.41320 | 2421 ft | 173 kts | 119° |
| 2026-05-04 15:01 | 48.15676 | 16.42869 | 2181 ft | 158 kts | 121° |
| 2026-05-04 15:01 | 48.15214 | 16.44296 | 1973 ft | 147 kts | 121° |
| 2026-05-04 15:02 | 48.14775 | 16.45650 | 1785 ft | 143 kts | 122° |
| 2026-05-04 15:02 | 48.14344 | 16.46978 | 1579 ft | 142 kts | 121° |
| 2026-05-04 15:02 | 48.13909 | 16.48316 | 1388 ft | 143 kts | 120° |
| 2026-05-04 15:02 | 48.13464 | 16.49693 | 1177 ft | 149 kts | 117° |
| 2026-05-04 15:03 | 48.13038 | 16.51058 | 982 ft | 142 kts | 118° |
| 2026-05-04 15:03 | 48.12612 | 16.52371 | 796 ft | 140 kts | 120° |
| 2026-05-04 15:03 | 48.12184 | 16.53653 | 632 ft | 137 kts | 120° |
| 2026-05-04 15:03 | 48.11804 | 16.54804 | 615 ft | 93 kts | 116° |
| 2026-05-04 15:04 | 48.11626 | 16.55352 | 614 ft | 44 kts | 116° |
| 2026-05-04 15:04 | 48.11519 | 16.55708 | 622 ft | 21 kts | 107° |
| 2026-05-04 15:04 | 48.11499 | 16.55892 | 609 ft | 17 kts | 91° |
| 2026-05-04 15:04 | 48.11506 | 16.56068 | 609 ft | 16 kts | 82° |
| 2026-05-04 15:05 | 48.11570 | 16.56165 | 615 ft | 12 kts | 25° |
| 2026-05-04 15:05 | 48.11633 | 16.56217 | 613 ft | 10 kts | 39° |
| 2026-05-04 15:05 | 48.11694 | 16.56271 | 614 ft | 11 kts | 26° |
| 2026-05-04 15:05 | 48.11749 | 16.56315 | 619 ft | 7 kts | 40° |
| 2026-05-04 15:06 | 48.11754 | 16.56375 | 613 ft | 9 kts | 104° |
| 2026-05-04 15:06 | 48.11711 | 16.56513 | 617 ft | 19 kts | 116° |
| 2026-05-04 15:06 | 48.11657 | 16.56682 | 620 ft | 13 kts | 115° |
| 2026-05-04 15:07 | 48.11683 | 16.56772 | 620 ft | 5 kts | 22° |
| 2026-05-04 15:07 | 48.11705 | 16.56787 | 620 ft | 1 kts | 25° |
| 2026-05-04 15:07 | 48.11706 | 16.56788 | 619 ft | 0 kts | 25° |